sensor_id;sensor_type;location;lat;lon;timestamp;pressure;altitude;pressure_sealevel;temperature;humidity
51986;BME280;38002;53.296;6.600;2022-07-22T00:03:14;102182.25;;;18.01;72.79
51986;BME280;38002;53.296;6.600;2022-07-22T00:08:14;102176.72;;;18.01;72.90
51986;BME280;38002;53.296;6.600;2022-07-22T00:13:15;102183.75;;;18.04;72.62
51986;BME280;38002;53.296;6.600;2022-07-22T00:18:15;102182.56;;;18.06;72.87
51986;BME280;38002;53.296;6.600;2022-07-22T00:23:16;102185.13;;;18.08;72.62
51986;BME280;38002;53.296;6.600;2022-07-22T00:28:16;102184.47;;;18.06;72.79
51986;BME280;38002;53.296;6.600;2022-07-22T00:33:16;102182.91;;;18.03;72.45
51986;BME280;38002;53.296;6.600;2022-07-22T00:38:17;102170.19;;;18.02;72.42
51986;BME280;38002;53.296;6.600;2022-07-22T00:43:17;102178.47;;;18.02;72.02
51986;BME280;38002;53.296;6.600;2022-07-22T00:48:18;102179.16;;;17.96;72.12
51986;BME280;38002;53.296;6.600;2022-07-22T00:53:18;102175.59;;;17.88;71.87
51986;BME280;38002;53.296;6.600;2022-07-22T00:58:19;102188.16;;;17.90;71.81
51986;BME280;38002;53.296;6.600;2022-07-22T01:03:21;102187.94;;;17.92;71.78
51986;BME280;38002;53.296;6.600;2022-07-22T01:08:22;102172.28;;;17.92;71.43
51986;BME280;38002;53.296;6.600;2022-07-22T01:13:23;102182.06;;;17.95;71.47
51986;BME280;38002;53.296;6.600;2022-07-22T01:18:23;102184.16;;;17.93;71.28
51986;BME280;38002;53.296;6.600;2022-07-22T01:23:24;102181.09;;;17.88;71.60
51986;BME280;38002;53.296;6.600;2022-07-22T01:28:25;102174.38;;;17.90;71.54
51986;BME280;38002;53.296;6.600;2022-07-22T01:33:25;102178.50;;;17.86;71.00
51986;BME280;38002;53.296;6.600;2022-07-22T01:38:26;102182.31;;;17.85;71.47
51986;BME280;38002;53.296;6.600;2022-07-22T01:43:26;102180.91;;;17.89;71.08
51986;BME280;38002;53.296;6.600;2022-07-22T01:48:27;102157.22;;;17.80;70.87
51986;BME280;38002;53.296;6.600;2022-07-22T01:53:27;102177.09;;;17.98;71.11
51986;BME280;38002;53.296;6.600;2022-07-22T01:58:28;102174.03;;;17.93;71.08
51986;BME280;38002;53.296;6.600;2022-07-22T02:03:28;102181.78;;;17.90;71.09
51986;BME280;38002;53.296;6.600;2022-07-22T02:08:29;102182.31;;;17.85;70.89
51986;BME280;38002;53.296;6.600;2022-07-22T02:13:29;102168.22;;;17.80;70.80
51986;BME280;38002;53.296;6.600;2022-07-22T02:18:30;102168.59;;;17.77;70.84
51986;BME280;38002;53.296;6.600;2022-07-22T02:23:30;102174.09;;;17.77;70.96
51986;BME280;38002;53.296;6.600;2022-07-22T02:28:31;102161.72;;;17.73;70.72
51986;BME280;38002;53.296;6.600;2022-07-22T02:33:31;102166.84;;;17.76;70.47
51986;BME280;38002;53.296;6.600;2022-07-22T02:38:32;102168.22;;;17.80;70.46
51986;BME280;38002;53.296;6.600;2022-07-22T02:43:32;102177.50;;;17.79;70.34
51986;BME280;38002;53.296;6.600;2022-07-22T02:48:32;102172.38;;;17.76;70.14
51986;BME280;38002;53.296;6.600;2022-07-22T02:53:34;102183.00;;;17.79;70.32
51986;BME280;38002;53.296;6.600;2022-07-22T02:58:34;102162.03;;;17.78;70.31
51986;BME280;38002;53.296;6.600;2022-07-22T03:03:35;102166.50;;;17.79;70.10
51986;BME280;38002;53.296;6.600;2022-07-22T03:08:36;102185.22;;;17.84;70.07
51986;BME280;38002;53.296;6.600;2022-07-22T03:13:37;102181.28;;;17.78;70.12
51986;BME280;38002;53.296;6.600;2022-07-22T03:18:38;102183.16;;;17.78;69.95
51986;BME280;38002;53.296;6.600;2022-07-22T03:23:38;102187.47;;;17.80;69.83
51986;BME280;38002;53.296;6.600;2022-07-22T03:28:39;102179.91;;;17.74;69.46
51986;BME280;38002;53.296;6.600;2022-07-22T03:33:39;102179.25;;;17.72;69.34
51986;BME280;38002;53.296;6.600;2022-07-22T03:38:40;102173.75;;;17.72;69.38
51986;BME280;38002;53.296;6.600;2022-07-22T03:43:40;102174.78;;;17.71;69.26
51986;BME280;38002;53.296;6.600;2022-07-22T03:48:41;102182.00;;;17.72;69.27
51986;BME280;38002;53.296;6.600;2022-07-22T03:53:41;102186.81;;;17.70;69.37
51986;BME280;38002;53.296;6.600;2022-07-22T03:58:42;102189.75;;;17.68;69.02
51986;BME280;38002;53.296;6.600;2022-07-22T04:03:42;102195.25;;;17.68;68.62
51986;BME280;38002;53.296;6.600;2022-07-22T04:08:43;102194.22;;;17.69;68.65
51986;BME280;38002;53.296;6.600;2022-07-22T04:13:43;102193.22;;;17.62;68.61
51986;BME280;38002;53.296;6.600;2022-07-22T04:18:43;102195.25;;;17.60;68.16
51986;BME280;38002;53.296;6.600;2022-07-22T04:23:44;102195.25;;;17.60;68.20
51986;BME280;38002;53.296;6.600;2022-07-22T04:28:44;102187.19;;;17.59;68.11
51986;BME280;38002;53.296;6.600;2022-07-22T04:33:45;102195.59;;;17.65;68.06
51986;BME280;38002;53.296;6.600;2022-07-22T04:38:45;102195.44;;;17.67;68.23
51986;BME280;38002;53.296;6.600;2022-07-22T04:43:46;102168.59;;;17.53;67.89
51986;BME280;38002;53.296;6.600;2022-07-22T04:48:46;102191.16;;;17.64;67.92
51986;BME280;38002;53.296;6.600;2022-07-22T04:53:47;102189.06;;;17.66;68.12
51986;BME280;38002;53.296;6.600;2022-07-22T04:58:47;102189.44;;;17.63;67.70
51986;BME280;38002;53.296;6.600;2022-07-22T05:03:48;102179.28;;;17.64;67.62
51986;BME280;38002;53.296;6.600;2022-07-22T05:08:48;102189.94;;;17.67;67.48
51986;BME280;38002;53.296;6.600;2022-07-22T05:13:49;102183.19;;;17.69;67.61
51986;BME280;38002;53.296;6.600;2022-07-22T05:18:49;102190.94;;;17.74;67.08
51986;BME280;38002;53.296;6.600;2022-07-22T05:23:50;102179.06;;;17.74;67.33
51986;BME280;38002;53.296;6.600;2022-07-22T05:28:50;102183.00;;;17.79;67.01
51986;BME280;38002;53.296;6.600;2022-07-22T05:33:51;102191.59;;;17.84;66.85
51986;BME280;38002;53.296;6.600;2022-07-22T05:38:51;102180.22;;;17.87;66.67
51986;BME280;38002;53.296;6.600;2022-07-22T05:43:52;102191.41;;;17.94;66.59
51986;BME280;38002;53.296;6.600;2022-07-22T05:48:52;102194.81;;;17.96;66.27
51986;BME280;38002;53.296;6.600;2022-07-22T05:53:55;102199.63;;;18.02;66.46
51986;BME280;38002;53.296;6.600;2022-07-22T05:58:55;102206.47;;;18.06;66.03
51986;BME280;38002;53.296;6.600;2022-07-22T06:03:59;102215.06;;;18.11;65.90
51986;BME280;38002;53.296;6.600;2022-07-22T06:08:59;102220.03;;;18.16;66.26
51986;BME280;38002;53.296;6.600;2022-07-22T06:14:00;102210.38;;;18.20;65.76
51986;BME280;38002;53.296;6.600;2022-07-22T06:19:01;102208.28;;;18.22;65.81
51986;BME280;38002;53.296;6.600;2022-07-22T06:24:02;102209.16;;;18.22;65.77
51986;BME280;38002;53.296;6.600;2022-07-22T06:29:02;102209.66;;;18.26;65.73
51986;BME280;38002;53.296;6.600;2022-07-22T06:34:03;102213.75;;;18.30;65.65
51986;BME280;38002;53.296;6.600;2022-07-22T06:39:05;102223.38;;;18.34;65.75
51986;BME280;38002;53.296;6.600;2022-07-22T06:44:06;102209.59;;;18.42;65.33
51986;BME280;38002;53.296;6.600;2022-07-22T06:49:06;102212.81;;;18.53;64.97
51986;BME280;38002;53.296;6.600;2022-07-22T06:54:07;102203.81;;;18.59;64.69
51986;BME280;38002;53.296;6.600;2022-07-22T06:59:08;102209.94;;;18.70;64.46
51986;BME280;38002;53.296;6.600;2022-07-22T07:04:08;102214.75;;;18.76;64.32
51986;BME280;38002;53.296;6.600;2022-07-22T07:09:09;102206.97;;;18.79;63.59
51986;BME280;38002;53.296;6.600;2022-07-22T07:14:09;102199.50;;;18.88;63.62
51986;BME280;38002;53.296;6.600;2022-07-22T07:19:10;102203.16;;;19.03;63.32
51986;BME280;38002;53.296;6.600;2022-07-22T07:24:10;102195.00;;;19.10;63.16
51986;BME280;38002;53.296;6.600;2022-07-22T07:29:11;102196.28;;;19.22;62.81
51986;BME280;38002;53.296;6.600;2022-07-22T07:34:11;102200.50;;;19.32;62.29
51986;BME280;38002;53.296;6.600;2022-07-22T07:39:12;102201.28;;;19.41;62.00
51986;BME280;38002;53.296;6.600;2022-07-22T07:44:12;102202.56;;;19.53;61.96
51986;BME280;38002;53.296;6.600;2022-07-22T07:49:13;102205.06;;;19.63;61.68
51986;BME280;38002;53.296;6.600;2022-07-22T07:54:15;102199.31;;;19.64;61.32
51986;BME280;38002;53.296;6.600;2022-07-22T07:59:16;102197.53;;;19.71;60.90
51986;BME280;38002;53.296;6.600;2022-07-22T08:04:17;102196.19;;;19.82;60.97
51986;BME280;38002;53.296;6.600;2022-07-22T08:09:17;102200.09;;;19.87;60.62
51986;BME280;38002;53.296;6.600;2022-07-22T08:14:18;102202.66;;;19.89;60.70
51986;BME280;38002;53.296;6.600;2022-07-22T08:19:19;102215.63;;;19.88;60.57
51986;BME280;38002;53.296;6.600;2022-07-22T08:24:19;102200.28;;;19.86;60.52
51986;BME280;38002;53.296;6.600;2022-07-22T08:29:20;102204.78;;;19.87;60.77
51986;BME280;38002;53.296;6.600;2022-07-22T08:34:20;102225.59;;;19.89;60.65
51986;BME280;38002;53.296;6.600;2022-07-22T08:39:21;102221.91;;;19.82;60.83
51986;BME280;38002;53.296;6.600;2022-07-22T08:44:21;102217.41;;;19.81;60.65
51986;BME280;38002;53.296;6.600;2022-07-22T08:49:22;102226.75;;;19.80;60.63
51986;BME280;38002;53.296;6.600;2022-07-22T08:54:23;102223.03;;;19.73;60.57
51986;BME280;38002;53.296;6.600;2022-07-22T08:59:24;102223.72;;;19.75;60.46
51986;BME280;38002;53.296;6.600;2022-07-22T09:04:25;102225.25;;;19.92;60.04
51986;BME280;38002;53.296;6.600;2022-07-22T09:09:33;102231.59;;;20.08;59.88
51986;BME280;38002;53.296;6.600;2022-07-22T09:14:47;102198.97;;;19.97;59.33
51986;BME280;38002;53.296;6.600;2022-07-22T09:19:48;102231.50;;;20.16;59.41
51986;BME280;38002;53.296;6.600;2022-07-22T09:24:48;102219.59;;;20.15;59.19
51986;BME280;38002;53.296;6.600;2022-07-22T09:29:49;102239.22;;;20.20;59.22
51986;BME280;38002;53.296;6.600;2022-07-22T09:34:50;102237.50;;;20.19;59.19
51986;BME280;38002;53.296;6.600;2022-07-22T09:39:50;102228.28;;;20.27;58.92
51986;BME280;38002;53.296;6.600;2022-07-22T09:44:51;102233.50;;;20.36;58.60
51986;BME280;38002;53.296;6.600;2022-07-22T09:49:51;102232.44;;;20.52;58.43
51986;BME280;38002;53.296;6.600;2022-07-22T09:54:52;102232.22;;;20.68;58.20
51986;BME280;38002;53.296;6.600;2022-07-22T09:59:52;102248.69;;;20.76;58.29
51986;BME280;38002;53.296;6.600;2022-07-22T10:04:53;102242.34;;;20.61;58.99
51986;BME280;38002;53.296;6.600;2022-07-22T10:09:56;102246.06;;;20.54;59.44
51986;BME280;38002;53.296;6.600;2022-07-22T10:14:57;102254.97;;;20.49;59.67
51986;BME280;38002;53.296;6.600;2022-07-22T10:19:58;102244.72;;;20.50;59.74
51986;BME280;38002;53.296;6.600;2022-07-22T10:25:00;102249.97;;;20.59;59.65
51986;BME280;38002;53.296;6.600;2022-07-22T10:30:04;102246.22;;;20.67;59.25
51986;BME280;38002;53.296;6.600;2022-07-22T10:40:13;102238.56;;;20.83;58.91
51986;BME280;38002;53.296;6.600;2022-07-22T10:45:14;102210.97;;;20.90;58.66
51986;BME280;38002;53.296;6.600;2022-07-22T11:01:23;102205.69;;;21.38;58.20
51986;BME280;38002;53.296;6.600;2022-07-22T11:06:30;102211.84;;;21.61;57.70
51986;BME280;38002;53.296;6.600;2022-07-22T11:16:39;102204.34;;;21.83;57.30
51986;BME280;38002;53.296;6.600;2022-07-22T11:21:39;102217.25;;;21.76;57.08
51986;BME280;38002;53.296;6.600;2022-07-22T11:26:46;102216.88;;;21.51;57.83
51986;BME280;38002;53.296;6.600;2022-07-22T11:31:47;102208.00;;;21.34;58.05
51986;BME280;38002;53.296;6.600;2022-07-22T11:36:47;102209.63;;;21.22;58.31
51986;BME280;38002;53.296;6.600;2022-07-22T11:41:49;102207.94;;;21.06;58.37
51986;BME280;38002;53.296;6.600;2022-07-22T11:46:50;102215.00;;;21.09;58.00
51986;BME280;38002;53.296;6.600;2022-07-22T11:51:54;102212.56;;;20.99;58.29
51986;BME280;38002;53.296;6.600;2022-07-22T11:56:54;102207.81;;;20.93;58.18
51986;BME280;38002;53.296;6.600;2022-07-22T12:01:56;102208.28;;;20.97;57.98
51986;BME280;38002;53.296;6.600;2022-07-22T12:06:59;102218.13;;;21.06;57.75
51986;BME280;38002;53.296;6.600;2022-07-22T12:12:02;102209.34;;;21.17;57.42
51986;BME280;38002;53.296;6.600;2022-07-22T12:17:08;102211.72;;;21.20;57.39
51986;BME280;38002;53.296;6.600;2022-07-22T12:22:19;102194.25;;;21.19;57.52
51986;BME280;38002;53.296;6.600;2022-07-22T12:27:20;102206.63;;;21.23;57.41
51986;BME280;38002;53.296;6.600;2022-07-22T12:32:25;102196.09;;;21.34;57.52
51986;BME280;38002;53.296;6.600;2022-07-22T12:37:31;102207.59;;;21.37;57.21
51986;BME280;38002;53.296;6.600;2022-07-22T12:42:39;102202.06;;;21.37;57.29
51986;BME280;38002;53.296;6.600;2022-07-22T12:52:48;102212.38;;;21.50;57.00
51986;BME280;38002;53.296;6.600;2022-07-22T12:57:48;102215.16;;;21.50;57.01
51986;BME280;38002;53.296;6.600;2022-07-22T13:02:50;102219.06;;;21.62;56.93
51986;BME280;38002;53.296;6.600;2022-07-22T13:07:50;102210.16;;;21.66;56.56
51986;BME280;38002;53.296;6.600;2022-07-22T13:12:53;102215.72;;;21.66;56.86
51986;BME280;38002;53.296;6.600;2022-07-22T13:17:54;102204.94;;;21.50;56.95
51986;BME280;38002;53.296;6.600;2022-07-22T13:22:54;102197.59;;;21.36;56.90
51986;BME280;38002;53.296;6.600;2022-07-22T13:27:55;102192.47;;;21.33;56.90
51986;BME280;38002;53.296;6.600;2022-07-22T13:32:56;102183.97;;;21.35;56.74
51986;BME280;38002;53.296;6.600;2022-07-22T13:37:57;102185.72;;;21.42;56.82
51986;BME280;38002;53.296;6.600;2022-07-22T13:42:57;102185.06;;;21.40;56.83
51986;BME280;38002;53.296;6.600;2022-07-22T13:47:58;102194.44;;;21.39;56.69
51986;BME280;38002;53.296;6.600;2022-07-22T13:52:59;102177.00;;;21.45;56.39
51986;BME280;38002;53.296;6.600;2022-07-22T13:57:59;102161.09;;;21.54;56.22
51986;BME280;38002;53.296;6.600;2022-07-22T14:03:00;102165.00;;;21.66;56.03
51986;BME280;38002;53.296;6.600;2022-07-22T14:08:00;102161.88;;;21.76;55.98
51986;BME280;38002;53.296;6.600;2022-07-22T14:13:01;102152.78;;;21.82;55.61
51986;BME280;38002;53.296;6.600;2022-07-22T14:18:01;102166.25;;;21.91;55.57
51986;BME280;38002;53.296;6.600;2022-07-22T14:23:03;102166.06;;;21.93;55.36
51986;BME280;38002;53.296;6.600;2022-07-22T14:28:06;102165.56;;;21.83;55.54
51986;BME280;38002;53.296;6.600;2022-07-22T14:33:06;102172.31;;;21.73;55.69
51986;BME280;38002;53.296;6.600;2022-07-22T14:38:07;102173.28;;;21.59;55.71
51986;BME280;38002;53.296;6.600;2022-07-22T14:43:07;102161.94;;;21.48;55.70
51986;BME280;38002;53.296;6.600;2022-07-22T14:48:08;102174.84;;;21.41;55.66
51986;BME280;38002;53.296;6.600;2022-07-22T14:53:08;102193.78;;;21.37;56.25
51986;BME280;38002;53.296;6.600;2022-07-22T14:58:09;102182.25;;;21.34;56.00
51986;BME280;38002;53.296;6.600;2022-07-22T15:03:09;102183.09;;;21.34;55.67
51986;BME280;38002;53.296;6.600;2022-07-22T15:08:10;102173.19;;;21.46;55.63
51986;BME280;38002;53.296;6.600;2022-07-22T15:13:10;102167.56;;;21.61;55.34
51986;BME280;38002;53.296;6.600;2022-07-22T15:18:11;102164.19;;;21.65;54.84
51986;BME280;38002;53.296;6.600;2022-07-22T15:23:11;102166.72;;;21.67;54.87
51986;BME280;38002;53.296;6.600;2022-07-22T15:28:12;102160.34;;;21.66;54.91
51986;BME280;38002;53.296;6.600;2022-07-22T15:33:12;102165.47;;;21.69;54.88
51986;BME280;38002;53.296;6.600;2022-07-22T15:38:13;102154.50;;;21.55;54.81
51986;BME280;38002;53.296;6.600;2022-07-22T15:43:14;102161.72;;;21.49;55.39
51986;BME280;38002;53.296;6.600;2022-07-22T15:48:14;102179.31;;;21.42;55.36
51986;BME280;38002;53.296;6.600;2022-07-22T15:53:16;102163.63;;;21.21;55.78
51986;BME280;38002;53.296;6.600;2022-07-22T15:58:16;102159.22;;;21.05;55.56
51986;BME280;38002;53.296;6.600;2022-07-22T16:03:35;102153.16;;;20.95;55.73
51986;BME280;38002;53.296;6.600;2022-07-22T16:08:36;102155.34;;;20.78;55.75
51986;BME280;38002;53.296;6.600;2022-07-22T16:13:37;102152.97;;;20.75;55.69
51986;BME280;38002;53.296;6.600;2022-07-22T16:18:37;102156.44;;;20.63;55.91
51986;BME280;38002;53.296;6.600;2022-07-22T16:23:38;102142.75;;;20.55;56.11
51986;BME280;38002;53.296;6.600;2022-07-22T16:28:38;102157.16;;;20.50;56.52
51986;BME280;38002;53.296;6.600;2022-07-22T16:33:45;102132.00;;;20.45;56.50
51986;BME280;38002;53.296;6.600;2022-07-22T16:38:45;102134.41;;;20.48;56.60
51986;BME280;38002;53.296;6.600;2022-07-22T16:43:46;102133.16;;;20.51;56.87
51986;BME280;38002;53.296;6.600;2022-07-22T16:48:47;102136.19;;;20.56;56.77
51986;BME280;38002;53.296;6.600;2022-07-22T16:53:48;102127.47;;;20.59;56.73
51986;BME280;38002;53.296;6.600;2022-07-22T16:58:48;102115.13;;;20.55;56.93
51986;BME280;38002;53.296;6.600;2022-07-22T17:03:49;102114.47;;;20.53;57.10
51986;BME280;38002;53.296;6.600;2022-07-22T17:08:49;102120.59;;;20.48;57.08
51986;BME280;38002;53.296;6.600;2022-07-22T17:13:50;102118.41;;;20.44;56.91
51986;BME280;38002;53.296;6.600;2022-07-22T17:18:51;102123.22;;;20.35;57.31
51986;BME280;38002;53.296;6.600;2022-07-22T17:23:52;102118.72;;;20.34;57.21
51986;BME280;38002;53.296;6.600;2022-07-22T17:28:53;102116.06;;;20.26;57.36
51986;BME280;38002;53.296;6.600;2022-07-22T17:33:54;102109.97;;;20.16;57.41
51986;BME280;38002;53.296;6.600;2022-07-22T17:38:54;102103.81;;;20.14;57.27
51986;BME280;38002;53.296;6.600;2022-07-22T17:43:57;102084.69;;;19.98;57.01
51986;BME280;38002;53.296;6.600;2022-07-22T17:48:57;102104.19;;;20.11;57.31
51986;BME280;38002;53.296;6.600;2022-07-22T17:53:57;102109.81;;;20.03;57.29
51986;BME280;38002;53.296;6.600;2022-07-22T17:58:59;102111.66;;;19.96;57.67
51986;BME280;38002;53.296;6.600;2022-07-22T18:04:00;102097.38;;;19.92;57.62
51986;BME280;38002;53.296;6.600;2022-07-22T18:09:01;102107.09;;;19.88;57.49
51986;BME280;38002;53.296;6.600;2022-07-22T18:14:01;102101.28;;;19.83;57.45
51986;BME280;38002;53.296;6.600;2022-07-22T18:19:02;102110.78;;;19.80;57.52
51986;BME280;38002;53.296;6.600;2022-07-22T18:24:02;102103.94;;;19.76;57.81
51986;BME280;38002;53.296;6.600;2022-07-22T18:29:03;102093.88;;;19.69;57.60
51986;BME280;38002;53.296;6.600;2022-07-22T18:34:04;102061.56;;;19.48;57.84
51986;BME280;38002;53.296;6.600;2022-07-22T18:39:05;102087.81;;;19.59;57.95
51986;BME280;38002;53.296;6.600;2022-07-22T18:44:06;102085.41;;;19.56;58.07
51986;BME280;38002;53.296;6.600;2022-07-22T18:49:07;102088.97;;;19.50;58.29
51986;BME280;38002;53.296;6.600;2022-07-22T18:54:08;102081.56;;;19.42;58.04
51986;BME280;38002;53.296;6.600;2022-07-22T18:59:09;102082.13;;;19.45;58.28
51986;BME280;38002;53.296;6.600;2022-07-22T19:04:09;102091.59;;;19.43;58.29
51986;BME280;38002;53.296;6.600;2022-07-22T19:09:10;102077.31;;;19.39;58.47
51986;BME280;38002;53.296;6.600;2022-07-22T19:14:11;102088.91;;;19.35;58.51
51986;BME280;38002;53.296;6.600;2022-07-22T19:19:12;102085.47;;;19.33;58.65
51986;BME280;38002;53.296;6.600;2022-07-22T19:24:12;102084.81;;;19.31;58.57
51986;BME280;38002;53.296;6.600;2022-07-22T19:29:14;102086.25;;;19.27;59.15
51986;BME280;38002;53.296;6.600;2022-07-22T19:34:14;102085.09;;;19.21;59.01
51986;BME280;38002;53.296;6.600;2022-07-22T19:39:15;102099.28;;;19.18;58.85
51986;BME280;38002;53.296;6.600;2022-07-22T19:44:15;102099.66;;;19.15;59.19
51986;BME280;38002;53.296;6.600;2022-07-22T19:49:16;102104.41;;;19.07;59.41
51986;BME280;38002;53.296;6.600;2022-07-22T19:54:17;102091.34;;;19.00;59.68
51986;BME280;38002;53.296;6.600;2022-07-22T19:59:17;102100.66;;;18.99;59.63
51986;BME280;38002;53.296;6.600;2022-07-22T20:04:18;102090.09;;;18.88;59.94
51986;BME280;38002;53.296;6.600;2022-07-22T20:09:18;102092.53;;;18.83;60.64
51986;BME280;38002;53.296;6.600;2022-07-22T20:14:19;102091.94;;;18.73;60.62
51986;BME280;38002;53.296;6.600;2022-07-22T20:19:20;102088.69;;;18.70;60.69
51986;BME280;38002;53.296;6.600;2022-07-22T20:24:21;102077.94;;;18.60;60.92
51986;BME280;38002;53.296;6.600;2022-07-22T20:29:21;102089.81;;;18.61;61.17
51986;BME280;38002;53.296;6.600;2022-07-22T20:34:22;102096.94;;;18.55;61.20
51986;BME280;38002;53.296;6.600;2022-07-22T20:39:22;102084.72;;;18.49;61.32
51986;BME280;38002;53.296;6.600;2022-07-22T20:44:23;102090.59;;;18.46;61.38
51986;BME280;38002;53.296;6.600;2022-07-22T20:49:24;102080.97;;;18.42;61.93
51986;BME280;38002;53.296;6.600;2022-07-22T20:54:25;102090.53;;;18.32;62.00
51986;BME280;38002;53.296;6.600;2022-07-22T20:59:26;102097.25;;;18.29;61.97
51986;BME280;38002;53.296;6.600;2022-07-22T21:04:26;102086.81;;;18.17;62.30
51986;BME280;38002;53.296;6.600;2022-07-22T21:09:27;102091.28;;;18.18;62.38
51986;BME280;38002;53.296;6.600;2022-07-22T21:14:27;102089.09;;;18.13;62.41
51986;BME280;38002;53.296;6.600;2022-07-22T21:19:27;102087.75;;;18.09;63.03
51986;BME280;38002;53.296;6.600;2022-07-22T21:24:28;102092.38;;;18.08;62.92
51986;BME280;38002;53.296;6.600;2022-07-22T21:29:28;102082.78;;;18.04;62.79
51986;BME280;38002;53.296;6.600;2022-07-22T21:34:29;102088.81;;;18.00;62.53
51986;BME280;38002;53.296;6.600;2022-07-22T21:39:30;102079.22;;;17.96;62.93
51986;BME280;38002;53.296;6.600;2022-07-22T21:44:30;102074.78;;;17.87;63.25
51986;BME280;38002;53.296;6.600;2022-07-22T21:49:31;102068.94;;;17.90;63.15
51986;BME280;38002;53.296;6.600;2022-07-22T21:54:31;102074.28;;;17.83;63.61
51986;BME280;38002;53.296;6.600;2022-07-22T21:59:32;102083.09;;;17.79;63.49
51986;BME280;38002;53.296;6.600;2022-07-22T22:04:32;102083.63;;;17.74;63.43
51986;BME280;38002;53.296;6.600;2022-07-22T22:09:33;102075.63;;;17.64;63.66
51986;BME280;38002;53.296;6.600;2022-07-22T22:14:34;102075.28;;;17.51;63.74
51986;BME280;38002;53.296;6.600;2022-07-22T22:19:34;102074.09;;;17.46;64.36
51986;BME280;38002;53.296;6.600;2022-07-22T22:24:35;102068.09;;;17.42;64.29
51986;BME280;38002;53.296;6.600;2022-07-22T22:29:35;102067.56;;;17.39;64.19
51986;BME280;38002;53.296;6.600;2022-07-22T22:34:35;102088.75;;;17.38;64.72
51986;BME280;38002;53.296;6.600;2022-07-22T22:39:37;102069.50;;;17.30;64.62
51986;BME280;38002;53.296;6.600;2022-07-22T22:44:38;102075.88;;;17.22;64.49
51986;BME280;38002;53.296;6.600;2022-07-22T22:49:38;102070.03;;;17.17;64.43
51986;BME280;38002;53.296;6.600;2022-07-22T22:54:39;102067.13;;;17.19;64.21
51986;BME280;38002;53.296;6.600;2022-07-22T22:59:39;102065.75;;;17.15;64.67
51986;BME280;38002;53.296;6.600;2022-07-22T23:04:40;102068.00;;;17.11;65.22
51986;BME280;38002;53.296;6.600;2022-07-22T23:09:40;102063.50;;;17.18;65.18
51986;BME280;38002;53.296;6.600;2022-07-22T23:14:40;102060.41;;;17.21;64.78
51986;BME280;38002;53.296;6.600;2022-07-22T23:19:41;102058.53;;;17.22;64.91
51986;BME280;38002;53.296;6.600;2022-07-22T23:24:51;102064.56;;;17.26;64.86
51986;BME280;38002;53.296;6.600;2022-07-22T23:29:52;102076.38;;;17.26;65.07
51986;BME280;38002;53.296;6.600;2022-07-22T23:34:52;102083.78;;;17.26;65.02
51986;BME280;38002;53.296;6.600;2022-07-22T23:39:52;102072.09;;;17.23;65.24
51986;BME280;38002;53.296;6.600;2022-07-22T23:44:53;102085.16;;;17.21;65.33
51986;BME280;38002;53.296;6.600;2022-07-22T23:49:53;102073.13;;;17.22;65.35
51986;BME280;38002;53.296;6.600;2022-07-22T23:54:54;102081.72;;;17.19;65.43
51986;BME280;38002;53.296;6.600;2022-07-22T23:59:54;102084.31;;;17.21;65.47
